sensor_id;sensor_type;location;lat;lon;timestamp;temperature;humidity
32895;DHT22;19251;49.484;8.260;2023-02-28T00:02:55;3.50;9.80
32895;DHT22;19251;49.484;8.260;2023-02-28T00:07:57;3.70;10.30
32895;DHT22;19251;49.484;8.260;2023-02-28T00:13:04;3.60;10.40
32895;DHT22;19251;49.484;8.260;2023-02-28T00:18:06;3.80;10.00
32895;DHT22;19251;49.484;8.260;2023-02-28T00:23:08;3.90;11.20
32895;DHT22;19251;49.484;8.260;2023-02-28T00:28:10;3.60;11.00
32895;DHT22;19251;49.484;8.260;2023-02-28T00:33:13;3.60;10.70
32895;DHT22;19251;49.484;8.260;2023-02-28T00:43:17;3.90;11.60
32895;DHT22;19251;49.484;8.260;2023-02-28T00:48:19;3.60;11.70
32895;DHT22;19251;49.484;8.260;2023-02-28T00:53:22;3.60;11.70
32895;DHT22;19251;49.484;8.260;2023-02-28T00:58:24;3.70;11.80
32895;DHT22;19251;49.484;8.260;2023-02-28T01:03:26;3.70;12.00
32895;DHT22;19251;49.484;8.260;2023-02-28T01:08:28;3.60;12.00
32895;DHT22;19251;49.484;8.260;2023-02-28T01:13:30;3.60;11.40
32895;DHT22;19251;49.484;8.260;2023-02-28T01:18:32;3.30;12.10
32895;DHT22;19251;49.484;8.260;2023-02-28T01:23:34;3.10;12.10
32895;DHT22;19251;49.484;8.260;2023-02-28T01:28:37;3.30;12.50
32895;DHT22;19251;49.484;8.260;2023-02-28T01:33:39;3.10;12.50
32895;DHT22;19251;49.484;8.260;2023-02-28T01:38:42;2.90;12.60
32895;DHT22;19251;49.484;8.260;2023-02-28T01:48:47;3.00;13.00
32895;DHT22;19251;49.484;8.260;2023-02-28T01:53:55;3.10;13.30
32895;DHT22;19251;49.484;8.260;2023-02-28T01:58:59;2.70;13.20
32895;DHT22;19251;49.484;8.260;2023-02-28T02:04:01;2.80;13.40
32895;DHT22;19251;49.484;8.260;2023-02-28T02:09:04;2.80;13.50
32895;DHT22;19251;49.484;8.260;2023-02-28T02:25:08;2.40;13.70
32895;DHT22;19251;49.484;8.260;2023-02-28T02:35:27;2.40;13.90
32895;DHT22;19251;49.484;8.260;2023-02-28T02:40:38;2.40;14.40
32895;DHT22;19251;49.484;8.260;2023-02-28T02:45:49;2.30;14.60
32895;DHT22;19251;49.484;8.260;2023-02-28T02:50:57;2.30;14.50
32895;DHT22;19251;49.484;8.260;2023-02-28T02:56:01;2.30;14.30
32895;DHT22;19251;49.484;8.260;2023-02-28T03:01:04;2.40;14.70
32895;DHT22;19251;49.484;8.260;2023-02-28T03:06:07;2.10;14.70
32895;DHT22;19251;49.484;8.260;2023-02-28T03:11:12;2.10;14.70
32895;DHT22;19251;49.484;8.260;2023-02-28T03:16:39;2.00;14.80
32895;DHT22;19251;49.484;8.260;2023-02-28T03:27:30;1.90;15.00
32895;DHT22;19251;49.484;8.260;2023-02-28T03:32:40;2.10;15.20
32895;DHT22;19251;49.484;8.260;2023-02-28T03:37:45;1.80;15.10
32895;DHT22;19251;49.484;8.260;2023-02-28T03:42:48;2.00;15.10
32895;DHT22;19251;49.484;8.260;2023-02-28T03:52:58;1.90;15.30
32895;DHT22;19251;49.484;8.260;2023-02-28T04:03:31;1.30;15.40
32895;DHT22;19251;49.484;8.260;2023-02-28T04:08:34;1.50;15.80
32895;DHT22;19251;49.484;8.260;2023-02-28T04:13:36;1.20;15.80
32895;DHT22;19251;49.484;8.260;2023-02-28T04:18:38;1.10;16.00
32895;DHT22;19251;49.484;8.260;2023-02-28T04:23:40;1.10;15.90
32895;DHT22;19251;49.484;8.260;2023-02-28T04:28:43;1.30;16.40
32895;DHT22;19251;49.484;8.260;2023-02-28T04:33:45;1.30;16.60
32895;DHT22;19251;49.484;8.260;2023-02-28T04:38:47;1.40;16.80
32895;DHT22;19251;49.484;8.260;2023-02-28T04:43:50;1.20;16.40
32895;DHT22;19251;49.484;8.260;2023-02-28T04:48:53;1.20;16.00
32895;DHT22;19251;49.484;8.260;2023-02-28T04:53:56;1.40;16.70
32895;DHT22;19251;49.484;8.260;2023-02-28T04:58:58;1.20;16.60
32895;DHT22;19251;49.484;8.260;2023-02-28T05:04:00;1.20;16.40
32895;DHT22;19251;49.484;8.260;2023-02-28T05:09:03;1.20;16.50
32895;DHT22;19251;49.484;8.260;2023-02-28T05:14:06;1.10;16.10
32895;DHT22;19251;49.484;8.260;2023-02-28T05:19:09;1.10;16.70
32895;DHT22;19251;49.484;8.260;2023-02-28T05:24:11;1.10;16.90
32895;DHT22;19251;49.484;8.260;2023-02-28T05:29:13;1.10;17.10
32895;DHT22;19251;49.484;8.260;2023-02-28T05:34:16;1.10;17.30
32895;DHT22;19251;49.484;8.260;2023-02-28T05:39:18;1.20;17.50
32895;DHT22;19251;49.484;8.260;2023-02-28T05:44:20;1.40;17.20
32895;DHT22;19251;49.484;8.260;2023-02-28T05:49:22;1.40;17.80
32895;DHT22;19251;49.484;8.260;2023-02-28T05:54:24;1.60;17.50
32895;DHT22;19251;49.484;8.260;2023-02-28T05:59:26;1.80;18.00
32895;DHT22;19251;49.484;8.260;2023-02-28T06:04:28;2.00;18.20
32895;DHT22;19251;49.484;8.260;2023-02-28T06:09:33;1.80;18.10
32895;DHT22;19251;49.484;8.260;2023-02-28T06:14:35;2.00;17.70
32895;DHT22;19251;49.484;8.260;2023-02-28T06:19:38;2.10;18.20
32895;DHT22;19251;49.484;8.260;2023-02-28T06:24:40;2.10;18.20
32895;DHT22;19251;49.484;8.260;2023-02-28T06:29:42;2.00;18.30
32895;DHT22;19251;49.484;8.260;2023-02-28T06:34:44;1.90;18.30
32895;DHT22;19251;49.484;8.260;2023-02-28T06:39:46;2.20;17.90
32895;DHT22;19251;49.484;8.260;2023-02-28T06:44:48;2.10;18.30
32895;DHT22;19251;49.484;8.260;2023-02-28T06:49:50;2.20;18.30
32895;DHT22;19251;49.484;8.260;2023-02-28T06:54:53;2.60;18.70
32895;DHT22;19251;49.484;8.260;2023-02-28T07:00:03;2.40;18.60
32895;DHT22;19251;49.484;8.260;2023-02-28T07:05:06;2.60;18.10
32895;DHT22;19251;49.484;8.260;2023-02-28T07:10:09;2.60;18.70
32895;DHT22;19251;49.484;8.260;2023-02-28T07:15:12;2.70;18.80
32895;DHT22;19251;49.484;8.260;2023-02-28T07:20:14;2.80;18.90
32895;DHT22;19251;49.484;8.260;2023-02-28T07:25:16;2.70;18.80
32895;DHT22;19251;49.484;8.260;2023-02-28T07:30:19;2.80;18.80
32895;DHT22;19251;49.484;8.260;2023-02-28T07:35:21;3.10;18.50
32895;DHT22;19251;49.484;8.260;2023-02-28T07:40:23;3.10;19.00
32895;DHT22;19251;49.484;8.260;2023-02-28T07:45:26;3.30;19.00
32895;DHT22;19251;49.484;8.260;2023-02-28T07:50:28;3.10;18.90
32895;DHT22;19251;49.484;8.260;2023-02-28T07:55:33;3.30;18.90
32895;DHT22;19251;49.484;8.260;2023-02-28T08:00:35;3.60;19.10
32895;DHT22;19251;49.484;8.260;2023-02-28T08:05:38;3.70;18.80
32895;DHT22;19251;49.484;8.260;2023-02-28T08:10:40;3.60;18.90
32895;DHT22;19251;49.484;8.260;2023-02-28T08:15:42;4.10;18.90
32895;DHT22;19251;49.484;8.260;2023-02-28T08:20:44;4.00;19.00
32895;DHT22;19251;49.484;8.260;2023-02-28T08:25:52;4.20;18.80
32895;DHT22;19251;49.484;8.260;2023-02-28T08:30:54;4.30;18.00
32895;DHT22;19251;49.484;8.260;2023-02-28T08:35:57;4.50;18.50
32895;DHT22;19251;49.484;8.260;2023-02-28T08:40:59;4.60;18.00
32895;DHT22;19251;49.484;8.260;2023-02-28T08:51:06;5.50;18.30
32895;DHT22;19251;49.484;8.260;2023-02-28T08:56:10;5.90;17.70
32895;DHT22;19251;49.484;8.260;2023-02-28T09:01:17;5.80;17.60
32895;DHT22;19251;49.484;8.260;2023-02-28T09:06:20;5.80;16.70
32895;DHT22;19251;49.484;8.260;2023-02-28T09:11:23;5.90;16.60
32895;DHT22;19251;49.484;8.260;2023-02-28T09:16:25;5.90;15.90
32895;DHT22;19251;49.484;8.260;2023-02-28T09:21:28;6.30;16.50
32895;DHT22;19251;49.484;8.260;2023-02-28T09:26:30;6.20;16.30
32895;DHT22;19251;49.484;8.260;2023-02-28T09:36:47;6.40;15.50
32895;DHT22;19251;49.484;8.260;2023-02-28T09:41:50;6.60;15.10
32895;DHT22;19251;49.484;8.260;2023-02-28T09:46:55;6.70;14.90
32895;DHT22;19251;49.484;8.260;2023-02-28T09:52:05;6.80;14.70
32895;DHT22;19251;49.484;8.260;2023-02-28T10:08:02;7.30;14.10
32895;DHT22;19251;49.484;8.260;2023-02-28T10:18:30;7.40;13.60
32895;DHT22;19251;49.484;8.260;2023-02-28T10:23:34;7.50;13.30
32895;DHT22;19251;49.484;8.260;2023-02-28T10:28:37;7.70;12.70
32895;DHT22;19251;49.484;8.260;2023-02-28T10:33:39;7.60;12.50
32895;DHT22;19251;49.484;8.260;2023-02-28T10:38:42;7.70;12.50
32895;DHT22;19251;49.484;8.260;2023-02-28T10:43:44;7.80;12.40
32895;DHT22;19251;49.484;8.260;2023-02-28T10:48:57;7.90;12.10
32895;DHT22;19251;49.484;8.260;2023-02-28T10:54:01;8.00;12.00
32895;DHT22;19251;49.484;8.260;2023-02-28T11:04:48;8.40;11.50
32895;DHT22;19251;49.484;8.260;2023-02-28T11:09:35;8.60;11.20
32895;DHT22;19251;49.484;8.260;2023-02-28T11:14:47;8.70;11.30
32895;DHT22;19251;49.484;8.260;2023-02-28T11:19:51;8.90;10.70
32895;DHT22;19251;49.484;8.260;2023-02-28T11:24:55;9.10;10.40
32895;DHT22;19251;49.484;8.260;2023-02-28T11:29:58;9.10;10.30
32895;DHT22;19251;49.484;8.260;2023-02-28T11:35:02;9.30;9.80
32895;DHT22;19251;49.484;8.260;2023-02-28T11:40:08;9.40;9.30
32895;DHT22;19251;49.484;8.260;2023-02-28T11:50:35;9.70;9.00
32895;DHT22;19251;49.484;8.260;2023-02-28T12:00:55;9.80;8.40
32895;DHT22;19251;49.484;8.260;2023-02-28T12:06:07;10.00;7.90
32895;DHT22;19251;49.484;8.260;2023-02-28T12:11:19;10.20;7.70
32895;DHT22;19251;49.484;8.260;2023-02-28T12:16:31;10.50;7.50
32895;DHT22;19251;49.484;8.260;2023-02-28T12:26:56;10.90;6.40
32895;DHT22;19251;49.484;8.260;2023-02-28T12:37:33;11.50;6.70
32895;DHT22;19251;49.484;8.260;2023-02-28T12:42:42;11.60;6.00
32895;DHT22;19251;49.484;8.260;2023-02-28T12:47:46;12.00;5.70
32895;DHT22;19251;49.484;8.260;2023-02-28T13:08:57;12.50;3.30
32895;DHT22;19251;49.484;8.260;2023-02-28T13:14:02;12.50;3.80
32895;DHT22;19251;49.484;8.260;2023-02-28T13:19:09;12.30;3.40
32895;DHT22;19251;49.484;8.260;2023-02-28T13:24:14;12.30;3.50
32895;DHT22;19251;49.484;8.260;2023-02-28T13:29:38;12.30;3.20
32895;DHT22;19251;49.484;8.260;2023-02-28T13:55:30;13.50;3.20
32895;DHT22;19251;49.484;8.260;2023-02-28T14:01:40;14.30;2.60
32895;DHT22;19251;49.484;8.260;2023-02-28T14:06:51;14.60;2.00
32895;DHT22;19251;49.484;8.260;2023-02-28T14:17:23;14.80;1.00
32895;DHT22;19251;49.484;8.260;2023-02-28T14:27:47;14.50;1.00
32895;DHT22;19251;49.484;8.260;2023-02-28T14:32:51;14.10;1.00
32895;DHT22;19251;49.484;8.260;2023-02-28T14:37:56;14.00;1.00
32895;DHT22;19251;49.484;8.260;2023-02-28T14:43:00;14.40;1.00
32895;DHT22;19251;49.484;8.260;2023-02-28T14:48:02;14.70;1.00
32895;DHT22;19251;49.484;8.260;2023-02-28T14:53:06;14.50;1.00
32895;DHT22;19251;49.484;8.260;2023-02-28T15:08:25;14.30;1.00
32895;DHT22;19251;49.484;8.260;2023-02-28T15:13:40;14.50;1.00
32895;DHT22;19251;49.484;8.260;2023-02-28T15:23:56;13.90;1.00
32895;DHT22;19251;49.484;8.260;2023-02-28T15:29:07;13.30;1.00
32895;DHT22;19251;49.484;8.260;2023-02-28T15:34:20;12.60;1.00
32895;DHT22;19251;49.484;8.260;2023-02-28T15:39:26;12.50;1.00
32895;DHT22;19251;49.484;8.260;2023-02-28T15:44:30;12.30;1.00
32895;DHT22;19251;49.484;8.260;2023-02-28T15:49:39;12.00;1.00
32895;DHT22;19251;49.484;8.260;2023-02-28T15:54:48;12.00;1.00
32895;DHT22;19251;49.484;8.260;2023-02-28T15:59:55;11.50;1.00
32895;DHT22;19251;49.484;8.260;2023-02-28T16:05:12;11.30;1.00
32895;DHT22;19251;49.484;8.260;2023-02-28T16:10:15;11.20;1.00
32895;DHT22;19251;49.484;8.260;2023-02-28T16:15:18;10.80;1.00
32895;DHT22;19251;49.484;8.260;2023-02-28T16:20:23;10.60;1.00
32895;DHT22;19251;49.484;8.260;2023-02-28T16:25:29;10.50;1.00
32895;DHT22;19251;49.484;8.260;2023-02-28T16:30:35;10.40;1.00
32895;DHT22;19251;49.484;8.260;2023-02-28T16:35:39;10.20;1.00
32895;DHT22;19251;49.484;8.260;2023-02-28T16:40:41;10.10;1.00
32895;DHT22;19251;49.484;8.260;2023-02-28T16:45:44;10.00;1.00
32895;DHT22;19251;49.484;8.260;2023-02-28T16:50:46;9.70;1.80
32895;DHT22;19251;49.484;8.260;2023-02-28T16:55:48;9.50;1.30
32895;DHT22;19251;49.484;8.260;2023-02-28T17:00:52;9.30;2.00
32895;DHT22;19251;49.484;8.260;2023-02-28T17:05:55;9.10;2.00
32895;DHT22;19251;49.484;8.260;2023-02-28T17:10:57;8.80;2.10
32895;DHT22;19251;49.484;8.260;2023-02-28T17:15:59;8.90;2.50
32895;DHT22;19251;49.484;8.260;2023-02-28T17:21:01;8.60;2.30
32895;DHT22;19251;49.484;8.260;2023-02-28T17:26:03;8.30;2.70
32895;DHT22;19251;49.484;8.260;2023-02-28T17:31:08;8.10;2.40
32895;DHT22;19251;49.484;8.260;2023-02-28T17:36:13;8.00;2.90
32895;DHT22;19251;49.484;8.260;2023-02-28T17:41:16;8.20;2.90
32895;DHT22;19251;49.484;8.260;2023-02-28T17:46:19;7.70;3.20
32895;DHT22;19251;49.484;8.260;2023-02-28T17:51:23;7.60;2.80
32895;DHT22;19251;49.484;8.260;2023-02-28T17:56:25;7.30;3.00
32895;DHT22;19251;49.484;8.260;2023-02-28T18:01:28;7.20;3.40
32895;DHT22;19251;49.484;8.260;2023-02-28T18:06:35;7.10;3.30
32895;DHT22;19251;49.484;8.260;2023-02-28T18:11:37;6.90;3.80
32895;DHT22;19251;49.484;8.260;2023-02-28T18:16:51;6.80;3.80
32895;DHT22;19251;49.484;8.260;2023-02-28T18:21:53;6.60;4.10
32895;DHT22;19251;49.484;8.260;2023-02-28T18:26:55;6.60;4.30
32895;DHT22;19251;49.484;8.260;2023-02-28T18:31:58;6.30;4.30
32895;DHT22;19251;49.484;8.260;2023-02-28T18:37:00;6.20;4.40
32895;DHT22;19251;49.484;8.260;2023-02-28T18:42:02;5.90;4.60
32895;DHT22;19251;49.484;8.260;2023-02-28T18:47:04;5.80;4.70
32895;DHT22;19251;49.484;8.260;2023-02-28T18:57:09;5.60;5.30
32895;DHT22;19251;49.484;8.260;2023-02-28T19:02:11;5.40;5.30
32895;DHT22;19251;49.484;8.260;2023-02-28T19:07:13;4.90;5.30
32895;DHT22;19251;49.484;8.260;2023-02-28T19:12:15;5.10;5.90
32895;DHT22;19251;49.484;8.260;2023-02-28T19:17:20;5.10;6.10
32895;DHT22;19251;49.484;8.260;2023-02-28T19:22:23;4.80;6.00
32895;DHT22;19251;49.484;8.260;2023-02-28T19:27:25;4.80;6.40
32895;DHT22;19251;49.484;8.260;2023-02-28T19:32:27;4.60;6.80
32895;DHT22;19251;49.484;8.260;2023-02-28T19:37:30;4.60;7.20
32895;DHT22;19251;49.484;8.260;2023-02-28T19:42:32;4.50;7.50
32895;DHT22;19251;49.484;8.260;2023-02-28T19:47:35;4.40;7.70
32895;DHT22;19251;49.484;8.260;2023-02-28T19:52:39;4.30;7.90
32895;DHT22;19251;49.484;8.260;2023-02-28T19:57:42;4.50;7.90
32895;DHT22;19251;49.484;8.260;2023-02-28T20:02:45;4.00;8.20
32895;DHT22;19251;49.484;8.260;2023-02-28T20:07:47;4.10;8.50
32895;DHT22;19251;49.484;8.260;2023-02-28T20:12:49;3.90;8.60
32895;DHT22;19251;49.484;8.260;2023-02-28T20:17:51;3.80;9.00
32895;DHT22;19251;49.484;8.260;2023-02-28T20:22:53;3.80;9.30
32895;DHT22;19251;49.484;8.260;2023-02-28T20:27:55;4.00;9.10
32895;DHT22;19251;49.484;8.260;2023-02-28T20:32:57;3.60;9.30
32895;DHT22;19251;49.484;8.260;2023-02-28T20:38:00;3.80;9.90
32895;DHT22;19251;49.484;8.260;2023-02-28T20:43:02;3.50;9.80
32895;DHT22;19251;49.484;8.260;2023-02-28T20:48:04;3.40;10.00
32895;DHT22;19251;49.484;8.260;2023-02-28T20:53:06;3.50;10.30
32895;DHT22;19251;49.484;8.260;2023-02-28T20:58:08;3.30;10.60
32895;DHT22;19251;49.484;8.260;2023-02-28T21:03:10;3.20;10.40
32895;DHT22;19251;49.484;8.260;2023-02-28T21:08:12;3.40;11.00
32895;DHT22;19251;49.484;8.260;2023-02-28T21:13:14;3.30;11.20
32895;DHT22;19251;49.484;8.260;2023-02-28T21:18:17;3.20;11.20
32895;DHT22;19251;49.484;8.260;2023-02-28T21:23:19;3.20;11.50
32895;DHT22;19251;49.484;8.260;2023-02-28T21:28:21;3.20;11.20
32895;DHT22;19251;49.484;8.260;2023-02-28T21:33:23;3.20;11.90
32895;DHT22;19251;49.484;8.260;2023-02-28T21:38:25;3.30;12.10
32895;DHT22;19251;49.484;8.260;2023-02-28T21:43:27;3.20;11.50
32895;DHT22;19251;49.484;8.260;2023-02-28T21:48:29;3.10;12.00
32895;DHT22;19251;49.484;8.260;2023-02-28T21:58:34;3.10;12.10
32895;DHT22;19251;49.484;8.260;2023-02-28T22:03:36;3.00;12.20
32895;DHT22;19251;49.484;8.260;2023-02-28T22:08:39;2.90;11.80
32895;DHT22;19251;49.484;8.260;2023-02-28T22:13:42;2.80;11.90
32895;DHT22;19251;49.484;8.260;2023-02-28T22:18:44;2.70;12.60
32895;DHT22;19251;49.484;8.260;2023-02-28T22:23:47;2.60;12.80
32895;DHT22;19251;49.484;8.260;2023-02-28T22:28:49;2.70;13.10
32895;DHT22;19251;49.484;8.260;2023-02-28T22:33:55;2.60;12.50
32895;DHT22;19251;49.484;8.260;2023-02-28T22:38:58;2.80;13.20
32895;DHT22;19251;49.484;8.260;2023-02-28T22:44:02;2.50;13.10
32895;DHT22;19251;49.484;8.260;2023-02-28T22:49:04;2.50;13.30
32895;DHT22;19251;49.484;8.260;2023-02-28T22:59:10;2.40;12.90
32895;DHT22;19251;49.484;8.260;2023-02-28T23:04:13;2.50;13.70
32895;DHT22;19251;49.484;8.260;2023-02-28T23:09:15;2.30;13.70
32895;DHT22;19251;49.484;8.260;2023-02-28T23:14:19;2.10;13.90
32895;DHT22;19251;49.484;8.260;2023-02-28T23:19:22;2.10;14.00
32895;DHT22;19251;49.484;8.260;2023-02-28T23:24:25;2.00;14.00
32895;DHT22;19251;49.484;8.260;2023-02-28T23:29:28;2.10;14.10
32895;DHT22;19251;49.484;8.260;2023-02-28T23:34:31;1.90;14.00
32895;DHT22;19251;49.484;8.260;2023-02-28T23:39:33;1.90;14.10
32895;DHT22;19251;49.484;8.260;2023-02-28T23:44:35;1.90;14.30
32895;DHT22;19251;49.484;8.260;2023-02-28T23:49:37;1.90;14.50
32895;DHT22;19251;49.484;8.260;2023-02-28T23:54:39;1.90;14.50
32895;DHT22;19251;49.484;8.260;2023-02-28T23:59:41;1.80;14.70
